Time;durP1;ratioP1;P1;durP2;ratioP2;P2;SDS_P1;SDS_P2;PMS_P1;PMS_P2;Temp;Humidity;BMP_temperature;BMP_pressure;BME280_temperature;BME280_humidity;BME280_pressure;Samples;Min_cycle;Max_cycle;Signal;HPM_P1;HPM_P2
2022/09/21 00:01:05;;;;;;;8.38;4.60;;;;;;;4.28;100.00;98134.50;5067624;28;20082;-60
2022/09/21 00:03:32;;;;;;;8.15;4.32;;;;;;;4.32;100.00;98140.34;5067936;28;20057;-60
2022/09/21 00:06:07;;;;;;;7.07;4.15;;;;;;;4.27;100.00;98143.56;5068172;28;20043;-59
2022/09/21 00:08:34;;;;;;;8.88;4.53;;;;;;;4.32;100.00;98136.81;5066897;28;20175;-58
2022/09/21 00:11:02;;;;;;;9.48;4.03;;;;;;;4.38;100.00;98136.03;5067163;28;20135;-61
2022/09/21 00:13:29;;;;;;;11.77;4.43;;;;;;;4.35;100.00;98142.59;5077674;28;20044;-60
2022/09/21 00:15:55;;;;;;;8.68;3.72;;;;;;;4.28;100.00;98139.06;5067949;28;20044;-59
2022/09/21 00:18:23;;;;;;;8.73;3.78;;;;;;;4.30;100.00;98134.31;5068248;28;20492;-60
2022/09/21 00:20:51;;;;;;;10.00;4.13;;;;;;;4.38;100.00;98136.03;5067429;28;20048;-59
2022/09/21 00:23:18;;;;;;;12.82;4.43;;;;;;;4.40;100.00;98136.69;5048054;28;20084;-60
2022/09/21 00:25:45;;;;;;;8.50;3.75;;;;;;;4.29;100.00;98136.19;5056362;28;20706;-58
2022/09/21 00:28:11;;;;;;;7.95;3.40;;;;;;;4.28;100.00;98134.50;5067023;28;20550;-59
2022/09/21 00:30:38;;;;;;;12.27;4.07;;;;;;;4.23;100.00;98131.56;5067846;28;20115;-60
2022/09/21 00:33:05;;;;;;;8.88;3.53;;;;;;;4.21;100.00;98135.47;5067310;28;20128;-61
2022/09/21 00:35:32;;;;;;;9.60;4.57;;;;;;;4.21;100.00;98132.78;5067911;28;20076;-60
2022/09/21 00:38:00;;;;;;;7.25;3.67;;;;;;;4.13;100.00;98131.09;5067335;28;20595;-61
2022/09/21 00:40:27;;;;;;;10.55;3.83;;;;;;;4.03;100.00;98128.72;5067071;28;20054;-59
2022/09/21 00:42:53;;;;;;;7.00;4.00;;;;;;;4.00;100.00;98127.25;5080766;28;20118;-61
2022/09/21 00:45:20;;;;;;;8.13;3.80;;;;;;;4.08;100.00;98130.81;5087236;28;20052;-58
2022/09/21 00:47:51;;;;;;;7.07;4.13;;;;;;;4.08;100.00;98128.97;5070465;28;20075;-59
2022/09/21 00:50:23;;;;;;;6.03;3.55;;;;;;;3.98;100.00;98133.81;5066755;28;20590;-59
2022/09/21 00:52:54;;;;;;;;;;;;;;;3.97;100.00;98135.66;5070923;28;20036;-61
2022/09/21 00:55:25;;;;;;;8.48;4.07;;;;;;;3.98;100.00;98129.28;5087405;28;19981;-59
2022/09/21 00:57:58;;;;;;;9.30;4.32;;;;;;;4.16;100.00;98128.84;5069996;28;20038;-61
2022/09/21 01:00:25;;;;;;;7.10;3.88;;;;;;;4.12;100.00;98140.97;5065927;28;20097;-60
2022/09/21 01:02:51;;;;;;;10.30;3.60;;;;;;;4.03;100.00;98134.88;5066284;28;20044;-61
2022/09/21 01:05:18;;;;;;;7.20;4.07;;;;;;;4.05;100.00;98133.88;5066640;28;20050;-60
2022/09/21 01:07:46;;;;;;;7.68;3.58;;;;;;;3.93;100.00;98133.53;5066789;28;20132;-58
2022/09/21 01:10:17;;;;;;;10.55;4.55;;;;;;;3.89;100.00;98141.97;5065998;28;20071;-60
2022/09/21 01:13:00;;;;;;;7.25;4.13;;;;;;;3.81;100.00;98135.88;5078564;28;20050;-59
2022/09/21 01:16:13;;;;;;;8.38;4.05;;;;;;;3.78;100.00;98129.06;5086522;28;20549;-59
2022/09/21 01:18:52;;;;;;;8.85;4.43;;;;;;;3.71;100.00;98133.50;5023702;28;20045;-59
2022/09/21 01:21:22;;;;;;;9.45;3.85;;;;;;;3.82;100.00;98134.88;5043185;28;20132;-59
2022/09/21 01:24:07;;;;;;;8.48;3.75;;;;;;;3.91;100.00;98133.75;5056367;28;20058;-60
2022/09/21 01:27:01;;;;;;;6.45;3.30;;;;;;;3.82;100.00;98133.03;5051542;28;20044;-60
2022/09/21 01:29:34;;;;;;;6.55;3.72;;;;;;;3.75;100.00;98130.28;5067597;28;20132;-58
2022/09/21 01:32:13;;;;;;;7.45;3.53;;;;;;;3.70;100.00;98132.69;5065719;28;20640;-59
2022/09/21 01:34:42;;;;;;;6.40;3.45;;;;;;;3.70;100.00;98138.06;5065720;28;20521;-59
2022/09/21 01:37:14;;;;;;;7.40;3.55;;;;;;;3.81;100.00;98142.09;5059741;28;20586;-61
2022/09/21 01:39:43;;;;;;;;;;;;;;;3.94;100.00;98141.38;5066910;28;20040;-60
2022/09/21 01:42:12;;;;;;;9.30;3.38;;;;;;;3.76;100.00;98144.50;5069825;28;19931;-58
2022/09/21 01:44:41;;;;;;;8.27;3.63;;;;;;;3.63;100.00;98140.66;5077049;28;20044;-61
2022/09/21 01:47:13;;;;;;;7.13;3.55;;;;;;;3.57;100.00;98143.25;5065766;28;20123;-60
2022/09/21 01:49:49;;;;;;;7.05;3.35;;;;;;;3.49;100.00;98139.66;5066143;28;20041;-58
2022/09/21 01:52:21;;;;;;;9.48;3.58;;;;;;;3.43;100.00;98145.75;5046128;28;20125;-60
2022/09/21 01:54:53;;;;;;;9.25;3.38;;;;;;;3.50;100.00;98152.03;5048672;28;20135;-59
2022/09/21 01:57:27;;;;;;;5.68;3.13;;;;;;;3.58;100.00;98139.56;5065715;28;20037;-59
2022/09/21 01:59:56;;;;;;;9.15;3.97;;;;;;;3.46;100.00;98153.41;5047459;28;20080;-61
2022/09/21 02:02:35;;;;;;;6.15;3.63;;;;;;;3.50;100.00;98153.84;5065989;28;20068;-60
2022/09/21 02:05:04;;;;;;;7.63;3.70;;;;;;;3.62;100.00;98138.16;5065792;28;20458;-58
2022/09/21 02:07:32;;;;;;;7.95;3.45;;;;;;;3.54;100.00;98143.63;5065560;28;20067;-60
2022/09/21 02:10:01;;;;;;;5.32;3.17;;;;;;;3.58;100.00;98148.41;5065599;28;20047;-59
2022/09/21 02:12:28;;;;;;;5.50;3.10;;;;;;;3.73;100.00;98140.34;5070141;28;20112;-58
2022/09/21 02:14:54;;;;;;;6.40;3.25;;;;;;;3.87;100.00;98143.19;5065723;28;20044;-60
2022/09/21 02:17:33;;;;;;;10.05;3.55;;;;;;;3.75;100.00;98141.00;5065579;28;20127;-60
2022/09/21 02:20:19;;;;;;;7.00;3.35;;;;;;;3.63;100.00;98135.31;5063428;28;20036;-60
2022/09/21 02:22:58;;;;;;;7.60;3.15;;;;;;;3.75;100.00;98138.31;5063646;28;20573;-60
2022/09/21 02:25:43;;;;;;;7.93;3.25;;;;;;;3.69;100.00;98141.72;5076041;28;20125;-58
2022/09/21 02:28:47;;;;;;;8.18;3.30;;;;;;;3.59;100.00;98136.69;5066300;28;20619;-59
2022/09/21 02:31:24;;;;;;;7.60;3.70;;;;;;;3.51;100.00;98137.63;5063275;28;20059;-59
2022/09/21 02:34:29;;;;;;;5.45;3.28;;;;;;;3.35;100.00;98127.94;5065560;28;20078;-58
2022/09/21 02:37:22;;;;;;;8.85;3.53;;;;;;;3.27;100.00;98130.72;5064321;28;20045;-59
2022/09/21 02:39:58;;;;;;;6.50;3.20;;;;;;;3.21;100.00;98124.25;5064459;28;20569;-60
2022/09/21 02:42:30;;;;;;;7.28;3.50;;;;;;;3.10;100.00;98127.44;5065301;28;20041;-61
2022/09/21 02:45:10;;;;;;;8.45;3.97;;;;;;;3.15;100.00;98126.84;5066952;28;20045;-60
2022/09/21 02:47:52;;;;;;;6.18;3.22;;;;;;;3.16;100.00;98125.88;5060971;28;20036;-59
2022/09/21 02:50:24;;;;;;;7.82;4.38;;;;;;;3.19;100.00;98126.31;5055606;28;20072;-60
2022/09/21 02:52:53;;;;;;;9.75;4.47;;;;;;;3.23;100.00;98134.78;5069769;28;20032;-61
2022/09/21 02:55:21;;;;;;;11.35;4.90;;;;;;;3.19;100.00;98130.81;5068922;28;20111;-60
2022/09/21 02:57:48;;;;;;;8.40;4.60;;;;;;;3.21;100.00;98132.28;5064871;28;20116;-59
2022/09/21 03:00:15;;;;;;;14.88;4.80;;;;;;;3.19;100.00;98128.16;5064939;28;20119;-61
2022/09/21 03:02:43;;;;;;;7.35;3.95;;;;;;;3.21;100.00;98126.13;5065051;28;20072;-60
2022/09/21 03:05:13;;;;;;;8.60;4.40;;;;;;;3.20;100.00;98122.63;5082791;28;20051;-58
2022/09/21 03:07:40;;;;;;;8.20;4.45;;;;;;;3.12;100.00;98117.34;5081462;28;20116;-60
2022/09/21 03:10:08;;;;;;;7.75;4.10;;;;;;;2.99;100.00;98115.34;5068415;28;20042;-61
2022/09/21 03:12:34;;;;;;;8.57;4.82;;;;;;;2.99;100.00;98124.19;5072575;28;20078;-58
2022/09/21 03:15:01;;;;;;;10.85;5.05;;;;;;;2.95;100.00;98125.56;5065288;28;20491;-61
2022/09/21 03:17:27;;;;;;;9.18;4.85;;;;;;;2.98;100.00;98124.38;5065123;28;20040;-60
2022/09/21 03:19:54;;;;;;;8.65;4.57;;;;;;;2.99;100.00;98118.03;5064699;28;20584;-60
2022/09/21 03:22:23;;;;;;;11.32;5.25;;;;;;;3.02;100.00;98127.53;5065308;28;20780;-58
2022/09/21 03:24:50;;;;;;;8.48;4.18;;;;;;;3.06;100.00;98129.63;5048758;28;20047;-60
2022/09/21 03:27:19;;;;;;;7.97;4.78;;;;;;;3.10;100.00;98128.25;5054007;28;20697;-60
2022/09/21 03:29:46;;;;;;;10.45;4.00;;;;;;;3.19;100.00;98126.31;5054571;28;20032;-60
2022/09/21 03:32:13;;;;;;;7.97;4.53;;;;;;;3.22;100.00;98136.66;5067862;28;20063;-59
2022/09/21 03:34:40;;;;;;;9.02;3.83;;;;;;;3.19;100.00;98128.16;5070039;28;20123;-61
2022/09/21 03:37:08;;;;;;;8.73;4.45;;;;;;;3.13;100.00;98137.75;5077404;28;20071;-59
2022/09/21 03:39:35;;;;;;;7.93;3.75;;;;;;;3.09;100.00;98139.97;5067007;28;20040;-58
2022/09/21 03:42:03;;;;;;;14.00;4.78;;;;;;;2.92;100.00;98138.50;5074611;28;20079;-60
2022/09/21 03:44:29;;;;;;;11.18;4.55;;;;;;;2.89;100.00;98139.69;5088468;28;20044;-59
2022/09/21 03:46:57;;;;;;;8.73;3.78;;;;;;;2.83;100.00;98149.28;5081548;28;20032;-60
2022/09/21 03:49:23;;;;;;;10.77;4.13;;;;;;;2.89;100.00;98146.88;5068555;28;20132;-59
2022/09/21 03:51:50;;;;;;;8.20;4.10;;;;;;;2.97;100.00;98150.31;5067597;28;20499;-59
2022/09/21 03:54:16;;;;;;;9.30;4.45;;;;;;;3.07;100.00;98143.84;5084460;28;20071;-59
2022/09/21 03:56:43;;;;;;;7.90;3.80;;;;;;;3.08;100.00;98145.50;5067720;28;20049;-58
2022/09/21 03:59:10;;;;;;;6.90;3.85;;;;;;;2.97;100.00;98150.31;5067122;28;20044;-59
2022/09/21 04:01:40;;;;;;;9.77;4.30;;;;;;;2.94;100.00;98150.66;5076679;28;20527;-58
2022/09/21 04:04:06;;;;;;;7.93;4.53;;;;;;;3.11;100.00;98150.50;5088264;28;20453;-59
2022/09/21 04:06:33;;;;;;;13.77;4.80;;;;;;;3.04;100.00;98149.56;5069677;28;20044;-60
2022/09/21 04:09:01;;;;;;;7.75;4.28;;;;;;;2.86;100.00;98158.78;5067824;28;20041;-60
2022/09/21 04:11:28;;;;;;;8.18;3.95;;;;;;;2.81;100.00;98153.97;5069114;28;20119;-60
2022/09/21 04:13:56;;;;;;;12.63;4.88;;;;;;;2.83;100.00;98159.13;5088080;28;20093;-60
2022/09/21 04:16:24;;;;;;;8.18;3.95;;;;;;;2.80;100.00;98154.16;5068908;28;20060;-59
2022/09/21 04:18:50;;;;;;;9.10;4.25;;;;;;;2.71;100.00;98156.91;5060535;28;20037;-59
2022/09/21 04:21:18;;;;;;;8.52;4.68;;;;;;;2.72;100.00;98157.72;5064872;28;20040;-60
2022/09/21 04:23:45;;;;;;;10.25;5.28;;;;;;;2.71;100.00;98151.56;5067675;28;20113;-60
2022/09/21 04:26:24;;;;;;;11.73;5.75;;;;;;;2.64;100.00;98160.47;5066843;28;20047;-59
2022/09/21 04:28:52;;;;;;;10.82;4.57;;;;;;;2.60;100.00;98168.88;5064256;28;20123;-59
2022/09/21 04:31:18;;;;;;;7.07;4.28;;;;;;;2.55;100.00;98157.88;5066362;28;20098;-58
2022/09/21 04:33:52;;;;;;;12.05;4.75;;;;;;;2.57;100.00;98155.88;5067782;28;20123;-61
2022/09/21 04:36:21;;;;;;;9.80;4.32;;;;;;;2.67;100.00;98160.13;5065608;28;20127;-61
2022/09/21 04:38:48;;;;;;;11.50;4.93;;;;;;;2.62;100.00;98163.34;5066683;28;20033;-61
2022/09/21 04:41:15;;;;;;;8.80;4.53;;;;;;;2.65;100.00;98162.16;5066245;28;20051;-60
2022/09/21 04:43:48;;;;;;;8.18;4.00;;;;;;;2.68;100.00;98164.44;5066777;28;20052;-60
2022/09/21 04:46:17;;;;;;;8.52;4.50;;;;;;;2.60;100.00;98163.53;5066758;28;20123;-61
2022/09/21 04:48:45;;;;;;;7.47;4.88;;;;;;;2.54;100.00;98164.25;5067143;28;20128;-62
2022/09/21 04:51:13;;;;;;;8.98;4.50;;;;;;;2.65;100.00;98164.84;5067521;28;20131;-61
2022/09/21 04:53:41;;;;;;;9.98;5.18;;;;;;;2.81;100.00;98164.69;5077820;28;20054;-61
2022/09/21 04:56:08;;;;;;;8.93;4.93;;;;;;;2.81;100.00;98166.50;5074559;28;20125;-59
2022/09/21 04:58:35;;;;;;;8.68;5.07;;;;;;;2.79;100.00;98164.03;5065925;28;20052;-62
2022/09/21 05:01:03;;;;;;;11.02;4.22;;;;;;;2.65;100.00;98164.84;5069873;28;20515;-60
2022/09/21 05:03:30;;;;;;;9.02;4.53;;;;;;;2.58;100.00;98170.06;5064963;28;20053;-59
2022/09/21 05:05:57;;;;;;;11.82;5.22;;;;;;;2.55;100.00;98171.25;5064318;28;20106;-59
2022/09/21 05:11:21;;;;;;;9.65;4.78;;;;;;;2.44;100.00;98183.19;5064748;28;20044;-61
2022/09/21 05:13:47;;;;;;;11.60;5.93;;;;;;;2.44;100.00;98185.06;5062114;28;20054;-60
2022/09/21 05:16:15;;;;;;;10.05;5.00;;;;;;;2.51;100.00;98185.16;5076930;28;20131;-60
2022/09/21 05:18:43;;;;;;;12.48;5.20;;;;;;;2.51;100.00;98190.50;5078616;28;20036;-59
2022/09/21 05:21:11;;;;;;;7.30;4.63;;;;;;;2.56;100.00;98190.81;5062553;28;20045;-60
2022/09/21 05:23:38;;;;;;;14.40;4.75;;;;;;;2.52;100.00;98186.81;5062231;28;20044;-59
2022/09/21 05:26:05;;;;;;;8.48;4.90;;;;;;;2.60;100.00;98194.78;5056381;28;20582;-60
2022/09/21 05:28:32;;;;;;;6.57;4.53;;;;;;;2.67;100.00;98189.53;5057382;28;20123;-60
2022/09/21 05:31:17;;;;;;;8.52;4.65;;;;;;;2.77;100.00;98183.94;5061290;28;20052;-61
2022/09/21 05:34:02;;;;;;;7.28;4.40;;;;;;;2.76;100.00;98192.97;5057505;28;20044;-61
2022/09/21 05:36:38;;;;;;;10.63;4.93;;;;;;;2.83;100.00;98192.06;5059072;28;20067;-62
2022/09/21 05:39:06;;;;;;;6.95;4.32;;;;;;;2.73;100.00;98195.00;5069206;28;20047;-59
2022/09/21 05:41:33;;;;;;;10.57;5.18;;;;;;;2.89;100.00;98195.88;5072482;28;20045;-61
2022/09/21 05:44:00;;;;;;;8.23;4.53;;;;;;;2.78;100.00;98194.47;5068333;28;20118;-62
2022/09/21 05:46:38;;;;;;;10.00;5.28;;;;;;;2.73;100.00;98195.00;5074574;28;20131;-61
2022/09/21 05:49:24;;;;;;;11.10;5.60;;;;;;;2.76;100.00;98193.78;5064733;28;20402;-60
2022/09/21 05:52:15;;;;;;;12.07;6.50;;;;;;;2.80;100.00;98194.28;5066364;28;20076;-61
2022/09/21 05:55:18;;;;;;;11.27;7.25;;;;;;;2.92;100.00;98200.00;5071958;28;20036;-63
2022/09/21 05:58:18;;;;;;;10.45;5.20;;;;;;;2.97;100.00;98201.13;5062268;28;20040;-60
2022/09/21 06:00:59;;;;;;;9.10;5.50;;;;;;;3.06;100.00;98198.38;5077156;28;20040;-59
2022/09/21 06:03:28;;;;;;;13.15;6.25;;;;;;;3.12;100.00;98197.63;5077936;28;20051;-60
2022/09/21 06:05:56;;;;;;;13.68;6.20;;;;;;;3.19;100.00;98200.41;5069147;28;20049;-61
2022/09/21 06:08:24;;;;;;;12.15;5.78;;;;;;;3.24;100.00;98209.56;5079820;28;20048;-61
2022/09/21 06:10:51;;;;;;;13.70;6.93;;;;;;;3.32;100.00;98207.81;5080738;28;20040;-60
2022/09/21 06:13:18;;;;;;;9.35;6.20;;;;;;;3.45;100.00;98207.16;5074951;28;20069;-59
2022/09/21 06:15:45;;;;;;;23.42;12.30;;;;;;;3.57;100.00;98207.53;5064103;28;20055;-61
2022/09/21 06:18:11;;;;;;;14.52;9.48;;;;;;;3.75;100.00;98205.28;5073013;28;20075;-60
2022/09/21 06:20:43;;;;;;;17.25;9.57;;;;;;;3.81;100.00;98213.59;5069208;28;20388;-60
2022/09/21 06:23:11;;;;;;;12.77;9.30;;;;;;;3.74;100.00;98208.16;5064350;28;20053;-60
2022/09/21 06:25:38;;;;;;;11.75;6.82;;;;;;;3.81;100.00;98214.44;5066298;28;20229;-60
2022/09/21 06:28:10;;;;;;;15.13;8.05;;;;;;;4.02;100.00;98216.31;5059221;28;20095;-62
2022/09/21 06:30:39;;;;;;;11.82;6.75;;;;;;;4.09;100.00;98213.69;5065981;28;20416;-62
2022/09/21 06:33:07;;;;;;;20.58;9.77;;;;;;;4.14;100.00;98216.66;5052327;28;20141;-60
2022/09/21 06:35:35;;;;;;;13.80;7.55;;;;;;;4.29;100.00;98216.63;5070671;28;20547;-60
2022/09/21 06:38:06;;;;;;;12.15;8.10;;;;;;;4.40;100.00;98207.25;5061478;28;20051;-60
2022/09/21 06:40:35;;;;;;;12.80;8.63;;;;;;;4.50;100.00;98212.25;5056146;28;20055;-61
2022/09/21 06:43:03;;;;;;;13.30;7.60;;;;;;;4.64;100.00;98215.91;5068016;28;20051;-61
2022/09/21 06:45:31;;;;;;;14.25;7.43;;;;;;;4.76;100.00;98220.75;5068298;28;20044;-61
2022/09/21 06:47:58;;;;;;;19.45;13.35;;;;;;;4.95;100.00;98208.53;5068538;28;20064;-61
2022/09/21 06:50:24;;;;;;;14.38;7.78;;;;;;;5.08;100.00;98211.31;5069910;28;20119;-59
2022/09/21 06:52:51;;;;;;;19.48;8.82;;;;;;;5.26;100.00;98204.59;5066415;28;20036;-60
2022/09/21 06:55:18;;;;;;;12.90;8.90;;;;;;;5.45;100.00;98208.44;5064165;28;20141;-61
2022/09/21 06:57:45;;;;;;;14.70;8.30;;;;;;;5.54;100.00;98208.28;5059589;28;20132;-59
2022/09/21 07:00:12;;;;;;;14.40;9.90;;;;;;;5.68;100.00;98207.31;5073962;28;20040;-61
2022/09/21 07:02:44;;;;;;;17.77;8.85;;;;;;;5.79;100.00;98208.59;5066252;28;20575;-59
2022/09/21 07:05:11;;;;;;;15.00;9.02;;;;;;;5.95;100.00;98209.28;5067482;28;20119;-59
2022/09/21 07:07:39;;;;;;;16.27;8.23;;;;;;;6.10;100.00;98206.47;5080764;28;20134;-61
2022/09/21 07:10:07;;;;;;;13.18;7.47;;;;;;;6.22;100.00;98214.75;5073160;28;20050;-60
2022/09/21 07:12:40;;;;;;;14.65;8.13;;;;;;;6.38;100.00;98209.03;5071719;28;20438;-61
2022/09/21 07:15:08;;;;;;;12.20;7.32;;;;;;;6.49;100.00;98214.84;5089124;28;20119;-61
2022/09/21 07:17:37;;;;;;;15.25;6.85;;;;;;;6.65;100.00;98216.31;5088866;28;20048;-60
2022/09/21 07:20:04;;;;;;;12.43;7.10;;;;;;;6.88;100.00;98217.75;5089276;28;20085;-60
2022/09/21 07:22:31;;;;;;;12.65;6.30;;;;;;;7.15;100.00;98207.81;5088947;28;20501;-60
2022/09/21 07:24:59;;;;;;;12.43;6.95;;;;;;;7.47;99.34;98208.97;5089043;28;20115;-61
2022/09/21 07:27:28;;;;;;;16.75;7.65;;;;;;;7.72;97.15;98213.69;5089042;28;20395;-60
2022/09/21 07:29:54;;;;;;;12.95;6.38;;;;;;;7.90;94.77;98213.00;5068399;28;20068;-60
2022/09/21 07:32:21;;;;;;;13.60;5.95;;;;;;;8.01;93.55;98216.91;5068107;28;20090;-60
2022/09/21 07:34:47;;;;;;;12.05;5.88;;;;;;;8.10;92.91;98212.91;5068565;28;20635;-61
2022/09/21 07:37:15;;;;;;;12.98;6.60;;;;;;;8.17;92.69;98224.50;5087835;28;20532;-61
2022/09/21 07:39:41;;;;;;;9.07;5.15;;;;;;;8.27;92.18;98223.22;5089041;28;20128;-59
2022/09/21 07:42:07;;;;;;;14.13;5.40;;;;;;;8.35;92.17;98220.25;5088126;28;20131;-60
2022/09/21 07:44:34;;;;;;;9.80;5.72;;;;;;;8.41;91.68;98221.28;5088707;28;20036;-59
2022/09/21 07:47:02;;;;;;;11.88;5.60;;;;;;;8.39;90.26;98229.56;5088167;28;20119;-61
2022/09/21 07:49:28;;;;;;;12.52;4.97;;;;;;;8.50;90.37;98227.22;5088796;28;20036;-59
2022/09/21 07:51:56;;;;;;;10.93;4.85;;;;;;;8.59;89.13;98223.28;5088242;28;20542;-59
2022/09/21 07:54:29;;;;;;;8.77;4.88;;;;;;;8.71;89.69;98229.59;5070356;28;20131;-60
2022/09/21 07:59:40;;;;;;;12.65;5.28;;;;;;;8.88;86.91;98233.66;5065691;28;20040;-58
2022/09/21 08:02:07;;;;;;;9.30;4.22;;;;;;;9.00;87.00;98233.75;5075060;28;20048;-59
2022/09/21 08:04:33;;;;;;;8.52;4.97;;;;;;;9.08;85.67;98228.94;5079938;28;20044;-60
2022/09/21 08:07:00;;;;;;;6.93;3.80;;;;;;;9.09;84.63;98227.03;5085075;28;20054;-60
2022/09/21 08:09:26;;;;;;;9.73;3.75;;;;;;;9.01;84.26;98230.00;5083400;28;20067;-61
2022/09/21 08:11:53;;;;;;;9.27;3.92;;;;;;;9.13;85.12;98232.84;5082464;28;20123;-61
2022/09/21 08:14:20;;;;;;;8.13;3.80;;;;;;;9.29;84.44;98229.53;5067761;28;20740;-61
2022/09/21 08:16:52;;;;;;;;;;;;;;;9.29;82.63;98229.53;5068462;28;20107;-60
2022/09/21 08:19:19;;;;;;;8.20;3.55;;;;;;;9.36;83.52;98226.78;5077127;28;19927;-61
2022/09/21 08:21:50;;;;;;;9.57;3.78;;;;;;;9.40;83.12;98230.69;5071947;28;20127;-60
2022/09/21 08:24:25;;;;;;;7.82;3.83;;;;;;;9.43;82.92;98224.03;5074492;28;20051;-61
2022/09/21 08:26:51;;;;;;;11.40;3.85;;;;;;;9.47;82.84;98227.94;5079635;28;20123;-58
2022/09/21 08:29:18;;;;;;;9.20;3.28;;;;;;;9.48;82.14;98233.09;5062750;28;20510;-60
2022/09/21 08:31:45;;;;;;;8.18;3.15;;;;;;;9.56;82.11;98225.75;5064551;28;20546;-60
2022/09/21 08:34:13;;;;;;;10.23;3.95;;;;;;;9.61;81.25;98226.75;5065804;28;20124;-60
2022/09/21 08:36:39;;;;;;;10.27;3.20;;;;;;;9.58;81.51;98229.09;5063915;28;20080;-61
2022/09/21 08:39:07;;;;;;;7.07;3.53;;;;;;;9.61;82.22;98226.75;5065574;28;20049;-60
2022/09/21 08:42:12;;;;;;;9.98;3.15;;;;;;;9.80;82.67;98224.03;5058102;28;20539;-61
2022/09/21 08:44:45;;;;;;;9.40;3.20;;;;;;;9.91;81.55;98229.75;5068493;28;20124;-60
2022/09/21 08:47:32;;;;;;;10.15;3.53;;;;;;;9.96;81.43;98233.44;5065181;28;20066;-59
2022/09/21 08:50:02;;;;;;;7.60;3.40;;;;;;;10.00;80.91;98234.63;5062705;28;20118;-61
2022/09/21 08:52:30;;;;;;;6.65;3.30;;;;;;;10.07;80.29;98236.44;5062199;28;20073;-59
2022/09/21 08:55:00;;;;;;;7.78;3.33;;;;;;;10.09;80.95;98226.19;5070220;28;20058;-60
2022/09/21 08:57:32;;;;;;;9.32;3.88;;;;;;;10.20;82.51;98222.72;5084688;28;20582;-61
2022/09/21 09:00:00;;;;;;;9.13;4.15;;;;;;;10.32;81.23;98225.47;5082746;28;20043;-62
2022/09/21 09:02:37;;;;;;;7.97;3.75;;;;;;;10.24;81.06;98221.22;5083731;28;20048;-61
2022/09/21 09:05:40;;;;;;;8.60;3.38;;;;;;;10.33;81.04;98223.59;5065997;28;20875;-61
2022/09/21 09:08:28;;;;;;;10.32;4.45;;;;;;;10.43;80.51;98221.16;5064624;28;20127;-61
2022/09/21 09:11:17;;;;;;;10.35;4.13;;;;;;;10.43;79.72;98229.28;5059272;28;20285;-62
2022/09/21 09:13:56;;;;;;;7.40;3.92;;;;;;;10.49;79.93;98222.16;5071896;28;20690;-60
2022/09/21 09:16:31;;;;;;;6.07;3.08;;;;;;;10.49;77.60;98224.84;5077579;28;20126;-60
2022/09/21 09:19:13;;;;;;;8.23;3.05;;;;;;;10.56;77.90;98224.75;5065073;28;20080;-61
2022/09/21 09:21:42;;;;;;;7.45;2.70;;;;;;;10.56;77.92;98225.59;5081414;28;20441;-62
2022/09/21 09:24:15;;;;;;;6.07;3.58;;;;;;;10.76;78.25;98222.59;5073177;28;20048;-62
2022/09/21 09:26:50;;;;;;;5.75;2.60;;;;;;;10.85;76.27;98214.13;5070067;28;20054;-60
2022/09/21 09:29:30;;;;;;;7.40;3.25;;;;;;;10.89;76.57;98218.84;5083392;28;20127;-61
2022/09/21 09:31:59;;;;;;;5.93;2.92;;;;;;;10.82;77.51;98214.56;5074946;28;20047;-62
2022/09/21 09:34:39;;;;;;;5.57;2.70;;;;;;;10.95;75.95;98211.69;5070849;28;20044;-62
2022/09/21 09:37:14;;;;;;;5.97;2.45;;;;;;;11.13;76.18;98218.06;5084929;28;20151;-61
2022/09/21 09:39:44;;;;;;;7.35;3.17;;;;;;;11.13;73.79;98212.63;5064882;28;20622;-63
2022/09/21 09:42:20;;;;;;;7.93;2.50;;;;;;;11.28;74.55;98209.47;5069564;28;20128;-62
2022/09/21 09:45:01;;;;;;;6.32;2.55;;;;;;;11.37;73.84;98220.75;5054160;28;20132;-62
2022/09/21 09:47:56;;;;;;;6.22;2.58;;;;;;;11.43;72.72;98217.91;5062662;28;20536;-62
2022/09/21 09:50:27;;;;;;;5.45;2.35;;;;;;;11.42;73.16;98210.03;5061997;28;20040;-62
2022/09/21 09:53:03;;;;;;;9.05;2.53;;;;;;;11.50;72.13;98206.94;5070299;28;20147;-60
2022/09/21 09:55:38;;;;;;;7.10;2.10;;;;;;;11.63;70.67;98205.88;5065986;28;20036;-60
2022/09/21 09:58:46;;;;;;;6.35;2.45;;;;;;;11.70;69.63;98194.91;5074041;28;20131;-62
2022/09/21 10:01:36;;;;;;;4.03;1.90;;;;;;;11.80;70.22;98200.53;5045726;28;20044;-61
2022/09/21 10:04:08;;;;;;;3.83;1.77;;;;;;;11.82;71.30;98193.00;5066112;28;20048;-61
2022/09/21 10:06:35;;;;;;;5.93;1.83;;;;;;;12.00;70.09;98193.03;5055672;28;20056;-62
2022/09/21 10:09:30;;;;;;;6.57;1.38;;;;;;;11.95;66.56;98188.34;5067420;28;20471;-60
2022/09/21 10:12:23;;;;;;;5.38;1.33;;;;;;;11.94;67.09;98184.81;5058741;28;20048;-62
2022/09/21 10:14:56;;;;;;;3.70;1.27;;;;;;;12.15;67.01;98179.81;5070903;28;20135;-62
2022/09/21 10:17:24;;;;;;;4.78;1.42;;;;;;;12.30;66.05;98178.44;5066927;28;20055;-60
2022/09/21 10:20:05;;;;;;;3.88;1.55;;;;;;;12.29;66.45;98177.63;5063227;28;20151;-62
2022/09/21 10:22:31;;;;;;;5.13;1.58;;;;;;;12.33;66.77;98173.38;5077141;28;20121;-62
2022/09/21 10:25:00;;;;;;;3.95;1.38;;;;;;;12.29;66.73;98177.63;5063142;28;20040;-61
2022/09/21 10:27:29;;;;;;;2.50;1.23;;;;;;;12.48;64.87;98169.28;5077427;28;20128;-61
2022/09/21 10:29:56;;;;;;;4.30;1.30;;;;;;;12.64;63.57;98177.69;5063359;28;20055;-62
2022/09/21 10:32:25;;;;;;;3.35;1.20;;;;;;;12.81;63.57;98175.81;5078727;28;20491;-61
2022/09/21 10:35:04;;;;;;;3.40;1.10;;;;;;;12.89;62.90;98169.13;5079004;28;20123;-63
2022/09/21 10:37:41;;;;;;;2.53;1.10;;;;;;;12.94;62.56;98168.41;5068301;28;20048;-62
2022/09/21 10:40:20;;;;;;;1.92;0.88;;;;;;;12.63;61.81;98165.19;5081157;28;20127;-61
2022/09/21 10:42:49;;;;;;;2.78;0.88;;;;;;;12.62;60.92;98158.91;5070642;28;20043;-60
2022/09/21 10:45:20;;;;;;;3.88;0.93;;;;;;;12.74;61.48;98166.97;5070307;28;20135;-62
2022/09/21 10:47:48;;;;;;;2.05;0.82;;;;;;;12.74;60.67;98166.97;5077529;28;20073;-62
2022/09/21 10:50:23;;;;;;;2.97;0.80;;;;;;;12.66;60.66;98161.97;5080603;28;20040;-63
2022/09/21 10:52:55;;;;;;;1.85;0.80;;;;;;;12.84;61.62;98167.16;5064832;28;20115;-63
2022/09/21 10:55:23;;;;;;;4.25;0.88;;;;;;;12.92;60.28;98159.66;5065420;28;20041;-61
2022/09/21 10:57:51;;;;;;;2.33;0.70;;;;;;;12.91;58.27;98164.28;5074691;28;20051;-62
2022/09/21 11:00:24;;;;;;;1.98;0.80;;;;;;;13.08;58.15;98156.09;5073026;28;20094;-61
2022/09/21 11:02:53;;;;;;;3.15;0.85;;;;;;;13.14;57.19;98154.28;5074109;28;20131;-63
2022/09/21 11:05:30;;;;;;;2.10;1.00;;;;;;;13.37;57.38;98149.69;5079685;28;20036;-60
2022/09/21 11:08:25;;;;;;;2.60;1.25;;;;;;;13.63;57.16;98150.91;5069577;28;20063;-62
2022/09/21 11:11:07;;;;;;;2.65;0.90;;;;;;;13.79;57.03;98159.25;5070282;28;20079;-62
2022/09/21 11:13:46;;;;;;;2.70;1.00;;;;;;;14.03;56.63;98167.97;5076554;28;20410;-61
2022/09/21 11:16:28;;;;;;;2.00;1.20;;;;;;;13.96;56.73;98155.66;5080173;28;20063;-60
2022/09/21 11:19:00;;;;;;;;;;;;;;;13.92;57.37;98163.47;5079791;28;20052;-62
2022/09/21 11:21:39;;;;;;;3.92;1.98;;;;;;;13.75;58.24;98163.56;5060534;28;20406;-62
2022/09/21 11:24:21;;;;;;;2.63;1.10;;;;;;;13.82;58.87;98160.66;5073485;28;20044;-61
2022/09/21 11:27:11;;;;;;;3.60;1.27;;;;;;;13.64;58.91;98144.38;5075946;28;20040;-61
2022/09/21 11:29:56;;;;;;;4.32;1.38;;;;;;;13.52;58.86;98149.13;5065000;28;20045;-61
2022/09/21 11:32:44;;;;;;;3.45;1.15;;;;;;;13.58;58.06;98142.69;5069668;28;20048;-60
2022/09/21 11:35:14;;;;;;;1.95;1.00;;;;;;;13.53;57.04;98139.91;5073694;28;20051;-62
2022/09/21 11:37:52;;;;;;;5.18;1.42;;;;;;;13.73;58.51;98133.88;5060532;28;20142;-62
2022/09/21 11:40:34;;;;;;;3.45;1.23;;;;;;;13.77;57.65;98136.91;5073717;28;20067;-60
2022/09/21 11:43:25;;;;;;;3.35;1.35;;;;;;;13.88;57.05;98132.41;5082705;28;20054;-59
2022/09/21 11:46:04;;;;;;;4.83;1.47;;;;;;;13.87;58.10;98128.03;5054543;28;20131;-60
2022/09/21 11:48:58;;;;;;;3.75;1.45;;;;;;;13.74;58.04;98121.91;5083123;28;20294;-60
2022/09/21 11:51:37;;;;;;;4.10;1.20;;;;;;;13.86;57.59;98119.03;5072809;28;20055;-61
2022/09/21 11:54:29;;;;;;;2.33;1.13;;;;;;;13.90;57.03;98119.38;5066630;28;20121;-59
2022/09/21 11:57:17;;;;;;;3.17;1.08;;;;;;;13.96;57.74;98120.25;5074246;28;20066;-61
2022/09/21 12:00:14;;;;;;;3.92;1.30;;;;;;;14.03;57.22;98115.41;5074591;28;20052;-59
2022/09/21 12:03:09;;;;;;;3.40;0.90;;;;;;;14.39;57.45;98114.94;5060983;28;20055;-61